Time;durP1;ratioP1;P1;durP2;ratioP2;P2;SDS_P1;SDS_P2;PMS_P1;PMS_P2;Temp;Humidity;BMP_temperature;BMP_pressure;BME280_temperature;BME280_humidity;BME280_pressure;Samples;Min_cycle;Max_cycle;Signal;HPM_P1;HPM_P2
2023/04/17 00:02:01;;;;;;;14.80;11.50;;;;;;;10.43;72.85;101178.90;107996;1254;71824;-84
2023/04/17 00:04:29;;;;;;;13.20;11.30;;;;;;;10.44;72.97;101181.13;108216;1254;63293;-84
2023/04/17 00:07:02;;;;;;;14.00;10.80;;;;;;;10.46;72.88;101176.98;109153;1257;58872;-85
2023/04/17 00:09:32;;;;;;;14.50;10.60;;;;;;;10.49;73.04;101176.13;108865;1257;74655;-85
2023/04/17 00:12:01;;;;;;;13.10;10.90;;;;;;;10.51;73.02;101175.48;108143;1257;72081;-84
2023/04/17 00:14:30;;;;;;;11.90;10.40;;;;;;;10.58;73.05;101178.67;107808;1256;73094;-84
2023/04/17 00:16:58;;;;;;;15.40;10.50;;;;;;;10.64;73.00;101178.25;107977;1254;63007;-84
2023/04/17 00:19:27;;;;;;;13.40;9.70;;;;;;;10.65;72.83;101176.08;108073;1254;61183;-85
2023/04/17 00:21:55;;;;;;;14.90;11.10;;;;;;;10.62;72.77;101183.66;108014;1257;74722;-85
2023/04/17 00:24:23;;;;;;;13.90;10.50;;;;;;;10.63;72.81;101180.04;107933;1257;72712;-84
2023/04/17 00:26:52;;;;;;;11.80;9.80;;;;;;;10.61;72.80;101180.17;107936;1259;72583;-84
2023/04/17 00:29:20;;;;;;;14.10;10.20;;;;;;;10.54;72.80;101181.72;107879;1257;62642;-83
2023/04/17 00:31:49;;;;;;;14.80;10.40;;;;;;;10.50;72.88;101181.61;107945;1255;61221;-84
2023/04/17 00:34:18;;;;;;;12.10;9.70;;;;;;;10.50;72.96;101183.46;107944;1257;75099;-84
2023/04/17 00:36:49;;;;;;;;;;;;;;;10.51;73.02;101181.88;107995;1256;70797;-84
2023/04/17 00:39:17;;;;;;;12.20;9.10;;;;;;;10.49;73.05;101182.12;107787;1257;72804;-84
2023/04/17 00:41:46;;;;;;;12.40;9.20;;;;;;;10.46;73.17;101181.58;107963;1256;61653;-84
2023/04/17 00:44:15;;;;;;;11.60;9.40;;;;;;;10.45;73.22;101184.39;107985;1256;61222;-84
2023/04/17 00:46:46;;;;;;;12.20;9.20;;;;;;;10.42;73.38;101182.10;107893;1257;74807;-85
2023/04/17 00:49:14;;;;;;;11.90;9.80;;;;;;;10.40;73.44;101180.33;107866;1257;72501;-84
2023/04/17 00:51:43;;;;;;;13.00;9.70;;;;;;;10.39;73.54;101184.94;107650;1261;72646;-84
2023/04/17 00:54:12;;;;;;;12.70;9.80;;;;;;;10.39;73.58;101182.27;107776;1257;63224;-85
2023/04/17 00:56:41;;;;;;;15.90;11.10;;;;;;;10.40;73.64;101183.98;107581;1257;61240;-85
2023/04/17 00:59:11;;;;;;;12.70;10.20;;;;;;;10.41;73.68;101186.14;107670;1262;73984;-84
2023/04/17 01:01:40;;;;;;;13.20;9.30;;;;;;;10.41;73.67;101183.46;107855;1256;72808;-84
2023/04/17 01:04:08;;;;;;;15.40;10.40;;;;;;;10.37;73.66;101181.27;107530;1257;70974;-85
2023/04/17 01:06:37;;;;;;;16.30;10.60;;;;;;;10.33;73.81;101178.99;107921;1256;63575;-84
2023/04/17 01:09:17;;;;;;;12.90;9.60;;;;;;;10.32;73.83;101182.88;107708;1256;61340;-84
2023/04/17 01:11:46;;;;;;;12.60;10.10;;;;;;;10.32;73.88;101181.91;107947;1255;75119;-85
2023/04/17 01:14:15;;;;;;;12.80;10.50;;;;;;;10.31;73.98;101181.38;107858;1257;73730;-84
2023/04/17 01:16:45;;;;;;;14.10;9.70;;;;;;;10.31;74.03;101177.69;107877;1257;71561;-84
2023/04/17 01:19:16;;;;;;;13.20;10.40;;;;;;;10.30;74.03;101178.32;107701;1261;62294;-85
2023/04/17 01:21:44;;;;;;;13.60;10.30;;;;;;;10.31;74.08;101178.19;107625;1256;61209;-84
2023/04/17 01:24:20;;;;;;;11.50;9.20;;;;;;;10.33;74.23;101179.52;107816;1257;76058;-84
2023/04/17 01:26:50;;;;;;;12.30;10.00;;;;;;;10.32;74.14;101177.48;107847;1257;72266;-85
2023/04/17 01:29:20;;;;;;;13.20;9.40;;;;;;;10.29;74.15;101177.93;107626;1255;73564;-86
2023/04/17 01:31:48;;;;;;;11.30;9.30;;;;;;;10.26;74.25;101175.49;107741;1256;61448;-85
2023/04/17 01:34:17;;;;;;;13.00;9.40;;;;;;;10.21;74.19;101175.82;108393;1255;59337;-86
2023/04/17 01:36:59;;;;;;;12.60;9.30;;;;;;;10.18;74.31;101176.02;109163;1257;74627;-82
2023/04/17 01:40:15;;;;;;;13.00;9.80;;;;;;;10.17;74.39;101173.32;108485;1257;72579;-84
2023/04/17 01:42:45;;;;;;;12.00;9.70;;;;;;;10.17;74.48;101174.36;107643;1257;71617;-83
2023/04/17 01:45:13;;;;;;;11.60;8.90;;;;;;;10.18;74.57;101175.55;107892;1256;62285;-83
2023/04/17 01:47:42;;;;;;;12.10;9.10;;;;;;;10.19;74.61;101175.40;107542;1262;61270;-83
2023/04/17 01:50:13;;;;;;;14.30;9.50;;;;;;;10.22;74.64;101174.66;107685;1255;72910;-84
2023/04/17 01:52:42;;;;;;;13.20;9.10;;;;;;;10.22;74.61;101177.27;107892;1254;71910;-84
2023/04/17 01:55:10;;;;;;;12.20;8.80;;;;;;;10.21;74.64;101179.24;107699;1256;72129;-82
2023/04/17 01:57:39;;;;;;;11.50;9.20;;;;;;;10.20;74.68;101178.20;107794;1254;62093;-84
2023/04/17 02:00:09;;;;;;;10.70;9.50;;;;;;;10.17;74.72;101178.46;107738;1256;61649;-85
2023/04/17 02:02:43;;;;;;;11.50;9.00;;;;;;;10.12;74.73;101174.76;107888;1256;75059;-84
2023/04/17 02:05:11;;;;;;;12.70;9.50;;;;;;;10.07;74.94;101179.41;107816;1256;73067;-84
2023/04/17 02:07:40;;;;;;;12.90;9.40;;;;;;;10.05;75.12;101179.95;107867;1254;71774;-84
2023/04/17 02:10:08;;;;;;;13.10;10.60;;;;;;;10.04;75.17;101180.74;107885;1257;61880;-83
2023/04/17 02:12:37;;;;;;;11.30;9.40;;;;;;;10.05;75.28;101182.57;103853;1257;5250128;-84
2023/04/17 02:15:06;;;;;;;13.30;9.70;;;;;;;10.08;75.37;101181.36;107851;1254;59361;-84
2023/04/17 02:17:36;;;;;;;12.60;9.60;;;;;;;10.10;75.36;101181.44;107708;1260;72228;-85
2023/04/17 02:20:07;;;;;;;15.00;9.90;;;;;;;10.10;75.37;101179.95;107598;1257;72584;-85
2023/04/17 02:22:36;;;;;;;12.70;9.50;;;;;;;10.10;75.47;101178.81;107622;1257;62107;-84
2023/04/17 02:25:05;;;;;;;14.60;10.10;;;;;;;10.09;75.38;101179.65;107638;1257;61349;-84
2023/04/17 02:27:34;;;;;;;11.00;9.20;;;;;;;10.09;75.53;101180.40;107891;1254;74213;-84
2023/04/17 02:30:02;;;;;;;12.20;9.80;;;;;;;10.10;75.56;101182.02;107706;1255;73456;-85
2023/04/17 02:32:33;;;;;;;12.40;9.00;;;;;;;10.11;75.65;101182.14;107931;1258;73654;-85
2023/04/17 02:35:02;;;;;;;11.40;9.20;;;;;;;10.14;75.58;101184.19;107773;1257;61907;-84
2023/04/17 02:37:32;;;;;;;11.10;8.90;;;;;;;10.16;75.59;101192.23;107948;1257;61343;-85
2023/04/17 02:40:05;;;;;;;11.70;8.70;;;;;;;10.15;75.55;101189.38;107931;1259;75959;-85
2023/04/17 02:42:37;;;;;;;13.70;10.30;;;;;;;10.14;75.50;101192.63;107923;1256;72909;-84
2023/04/17 02:45:06;;;;;;;12.00;8.90;;;;;;;10.15;75.49;101193.17;107780;1256;70219;-85
2023/04/17 02:47:35;;;;;;;11.00;8.70;;;;;;;10.17;75.49;101194.27;107808;1256;60452;-85
2023/04/17 02:50:04;;;;;;;14.30;9.70;;;;;;;10.19;75.48;101199.06;107791;1256;59361;-84
2023/04/17 02:52:36;;;;;;;12.20;9.20;;;;;;;10.20;75.42;101197.25;107799;1257;74142;-84
2023/04/17 02:55:05;;;;;;;10.90;8.50;;;;;;;10.22;75.42;101203.07;107941;1256;72062;-85
2023/04/17 02:57:34;;;;;;;14.90;9.30;;;;;;;10.24;75.43;101206.48;107859;1257;72736;-84
2023/04/17 03:00:15;;;;;;;11.40;8.20;;;;;;;10.26;75.29;101209.73;107801;1256;60840;-84
2023/04/17 03:02:45;;;;;;;11.20;8.00;;;;;;;10.29;75.11;101206.70;108119;1256;61154;-84
2023/04/17 03:05:14;;;;;;;9.80;8.20;;;;;;;10.30;75.05;101213.45;109001;1256;73593;-85
2023/04/17 03:07:43;;;;;;;10.40;8.10;;;;;;;10.27;75.07;101213.19;109130;1256;72933;-83
2023/04/17 03:10:12;;;;;;;11.80;8.30;;;;;;;10.25;75.04;101208.30;108218;1257;72672;-84
2023/04/17 03:12:47;;;;;;;11.10;7.70;;;;;;;10.24;74.97;101209.78;107938;1257;61023;-84
2023/04/17 03:15:16;;;;;;;11.90;8.20;;;;;;;10.24;75.01;101212.29;107828;1256;61292;-84
2023/04/17 03:17:45;;;;;;;13.60;8.60;;;;;;;10.22;74.87;101209.11;107911;1257;74613;-85
2023/04/17 03:20:14;;;;;;;12.30;7.70;;;;;;;10.22;74.94;101213.91;107768;1256;72570;-84
2023/04/17 03:22:43;;;;;;;10.50;7.60;;;;;;;10.25;74.94;101219.01;107888;1254;72272;-85
2023/04/17 03:25:14;;;;;;;11.70;8.20;;;;;;;10.28;74.82;101217.90;107853;1254;61809;-86
2023/04/17 03:27:55;;;;;;;10.70;7.70;;;;;;;10.27;74.60;101224.84;108028;1254;61544;-86
2023/04/17 03:30:29;;;;;;;9.80;7.50;;;;;;;10.28;74.55;101226.23;107830;1254;74557;-86
2023/04/17 03:33:00;;;;;;;10.60;7.80;;;;;;;10.27;74.48;101228.02;107965;1256;71536;-85
2023/04/17 03:35:30;;;;;;;11.60;7.70;;;;;;;10.26;74.36;101227.08;108132;1254;71887;-86
2023/04/17 03:37:58;;;;;;;9.30;7.60;;;;;;;10.27;74.33;101231.34;109066;1254;61997;-86
2023/04/17 03:40:26;;;;;;;11.20;7.30;;;;;;;10.28;74.12;101232.31;109221;1254;61614;-83
2023/04/17 03:42:55;;;;;;;10.70;7.60;;;;;;;10.29;73.97;101230.68;109186;1254;74676;-85
2023/04/17 03:45:24;;;;;;;10.90;7.50;;;;;;;10.31;73.88;101230.71;109277;1259;72602;-85
2023/04/17 03:47:52;;;;;;;10.60;7.30;;;;;;;10.32;73.80;101229.82;107984;1254;71958;-83
2023/04/17 03:50:21;;;;;;;10.90;7.00;;;;;;;10.35;73.66;101233.46;107887;1259;61284;-87
2023/04/17 03:52:55;;;;;;;11.10;6.90;;;;;;;10.41;73.25;101238.75;108003;1256;61125;-86
2023/04/17 03:55:25;;;;;;;9.80;7.30;;;;;;;11.02;71.69;101242.20;108008;1256;75218;-84
2023/04/17 03:57:54;;;;;;;10.30;7.10;;;;;;;11.14;70.44;101242.09;107814;1257;71890;-84
2023/04/17 04:00:23;;;;;;;9.80;7.00;;;;;;;10.58;71.29;101247.23;107881;1256;73087;-84
2023/04/17 04:02:55;;;;;;;10.70;7.00;;;;;;;10.54;71.45;101246.15;107986;1256;62210;-83
2023/04/17 04:05:28;;;;;;;11.40;7.50;;;;;;;11.12;69.90;101249.37;107910;1257;61190;-86
2023/04/17 04:07:57;;;;;;;7.40;6.20;;;;;;;11.27;69.11;101246.13;107709;1257;74618;-85
2023/04/17 04:10:33;;;;;;;8.70;6.00;;;;;;;11.34;68.63;101249.19;107983;1256;72071;-84
2023/04/17 04:13:02;;;;;;;11.30;6.80;;;;;;;11.40;68.13;101253.39;107820;1256;71860;-85
2023/04/17 04:15:30;;;;;;;10.50;6.90;;;;;;;11.43;67.50;101252.41;107764;1257;61764;-85
2023/04/17 04:18:01;;;;;;;9.10;6.60;;;;;;;11.44;67.28;101252.92;107888;1256;61042;-84
2023/04/17 04:20:31;;;;;;;9.30;6.60;;;;;;;11.48;67.18;101251.05;107746;1256;74485;-85
2023/04/17 04:23:15;;;;;;;9.50;6.40;;;;;;;11.45;66.93;101257.95;107742;1257;73299;-85
2023/04/17 04:25:44;;;;;;;9.20;7.00;;;;;;;11.01;67.71;101259.25;107600;1257;73405;-86
2023/04/17 04:28:29;;;;;;;10.60;6.10;;;;;;;11.39;66.87;101259.58;107913;1256;62023;-86
2023/04/17 04:30:57;;;;;;;9.70;6.50;;;;;;;10.90;67.87;101262.44;107851;1257;61216;-87
2023/04/17 04:33:29;;;;;;;8.80;5.90;;;;;;;10.79;68.26;101265.73;108603;1257;72813;-85
2023/04/17 04:35:59;;;;;;;8.30;6.10;;;;;;;10.79;68.54;101267.21;109088;1257;71604;-85
2023/04/17 04:38:29;;;;;;;9.00;6.50;;;;;;;10.81;68.31;101263.72;108746;1257;72355;-85
2023/04/17 04:41:04;;;;;;;10.20;6.40;;;;;;;11.21;67.00;101265.39;107957;1257;61895;-85
2023/04/17 04:43:35;;;;;;;8.50;5.60;;;;;;;11.44;65.67;101263.66;107916;1257;61176;-85
2023/04/17 04:46:03;;;;;;;9.70;6.10;;;;;;;11.58;64.76;101264.77;107888;1257;74657;-85
2023/04/17 04:48:34;;;;;;;10.60;5.80;;;;;;;11.14;65.37;101264.85;107957;1255;71843;-86
2023/04/17 04:51:02;;;;;;;8.40;5.20;;;;;;;11.58;64.15;101262.20;107722;1255;71595;-85
2023/04/17 04:53:31;;;;;;;7.90;5.20;;;;;;;11.70;63.32;101265.75;107782;1256;61610;-84
2023/04/17 04:56:00;;;;;;;9.10;5.10;;;;;;;11.73;62.81;101264.64;107800;1256;61199;-86
2023/04/17 04:58:30;;;;;;;8.70;5.40;;;;;;;11.58;62.57;101266.27;107788;1257;74177;-84
2023/04/17 05:01:00;;;;;;;11.40;4.80;;;;;;;11.79;61.59;101268.52;107893;1256;72282;-84
2023/04/17 05:03:33;;;;;;;8.10;4.80;;;;;;;11.84;61.25;101269.63;107851;1257;72205;-85
2023/04/17 05:06:03;;;;;;;8.80;4.90;;;;;;;11.87;60.80;101270.59;107763;1257;61344;-85
2023/04/17 05:08:41;;;;;;;7.90;4.80;;;;;;;11.27;61.27;101275.38;107713;1257;61108;-85
2023/04/17 05:11:12;;;;;;;8.40;4.90;;;;;;;11.06;61.80;101279.75;107893;1257;74813;-86
2023/04/17 05:13:40;;;;;;;8.80;5.20;;;;;;;11.03;62.08;101280.93;107811;1257;72770;-84
2023/04/17 05:16:14;;;;;;;9.70;4.60;;;;;;;11.06;62.13;101285.90;107942;1257;72882;-85
2023/04/17 05:18:45;;;;;;;9.10;4.80;;;;;;;11.11;62.20;101288.98;107906;1256;61343;-85
2023/04/17 05:21:15;;;;;;;8.30;5.20;;;;;;;11.13;61.69;101292.34;107941;1256;61115;-85
2023/04/17 05:23:49;;;;;;;9.10;4.90;;;;;;;11.16;61.48;101296.98;107923;1257;73688;-86
2023/04/17 05:26:17;;;;;;;6.70;4.50;;;;;;;11.18;61.02;101298.61;107944;1257;74031;-85
2023/04/17 05:28:45;;;;;;;7.50;4.70;;;;;;;11.20;60.74;101300.78;107689;1257;71474;-86
2023/04/17 05:31:18;;;;;;;6.50;4.30;;;;;;;11.18;60.53;101302.15;107954;1256;61743;-85
2023/04/17 05:33:47;;;;;;;8.80;5.00;;;;;;;11.21;60.52;101306.26;108383;1256;61100;-81
2023/04/17 05:36:15;;;;;;;7.50;4.50;;;;;;;11.26;60.71;101304.48;109020;1257;74605;-84
2023/04/17 05:38:44;;;;;;;8.80;4.80;;;;;;;11.32;60.68;101298.99;108924;1257;72471;-87
2023/04/17 05:41:13;;;;;;;9.00;4.40;;;;;;;11.34;60.39;101303.73;108569;1257;71683;-85
2023/04/17 05:43:44;;;;;;;8.20;4.40;;;;;;;11.36;60.44;101302.91;108509;1255;63017;-86
2023/04/17 05:46:13;;;;;;;8.10;4.10;;;;;;;11.40;60.01;101306.02;108449;1257;61151;-86
2023/04/17 05:48:43;;;;;;;6.10;3.90;;;;;;;11.40;59.51;101305.55;108158;1256;74096;-85
2023/04/17 05:51:12;;;;;;;6.80;3.70;;;;;;;11.41;58.90;101305.71;108094;1256;72044;-86
2023/04/17 05:53:43;;;;;;;6.60;3.70;;;;;;;11.42;58.33;101306.11;107915;1257;71982;-83
2023/04/17 05:56:11;;;;;;;6.60;4.20;;;;;;;11.44;57.52;101309.02;108017;1257;61292;-84
2023/04/17 05:58:39;;;;;;;7.00;3.90;;;;;;;11.44;57.28;101311.11;107843;1257;61128;-84
2023/04/17 06:01:09;;;;;;;7.10;3.70;;;;;;;11.44;57.13;101307.04;107878;1257;75839;-83
2023/04/17 06:03:38;;;;;;;6.80;3.80;;;;;;;11.45;57.13;101306.31;109239;1257;74096;-83
2023/04/17 06:06:13;;;;;;;8.60;3.90;;;;;;;11.43;56.79;101310.30;108933;1256;72374;-85
2023/04/17 06:08:41;;;;;;;8.60;4.60;;;;;;;11.40;56.60;101305.33;108317;1255;61337;-81
2023/04/17 06:11:10;;;;;;;7.50;3.80;;;;;;;11.34;56.32;101307.27;108019;1254;60015;-84
2023/04/17 06:13:40;;;;;;;7.70;5.20;;;;;;;11.27;56.64;101314.64;107936;1259;74115;-84
2023/04/17 06:16:08;;;;;;;7.10;3.80;;;;;;;11.26;56.82;101311.64;108010;1257;72989;-85
2023/04/17 06:18:39;;;;;;;7.50;4.10;;;;;;;11.28;56.70;101307.77;107948;1254;71839;-85
2023/04/17 06:21:07;;;;;;;7.20;4.10;;;;;;;11.28;56.46;101310.96;108028;1254;63236;-85
2023/04/17 06:23:37;;;;;;;5.60;3.80;;;;;;;11.28;56.53;101316.03;107869;1258;61144;-84
2023/04/17 06:26:05;;;;;;;6.00;4.20;;;;;;;11.25;56.27;101317.83;108004;1257;75702;-83
2023/04/17 06:28:36;;;;;;;7.00;4.30;;;;;;;11.21;56.06;101314.55;107930;1257;72074;-83
2023/04/17 06:31:05;;;;;;;5.80;3.90;;;;;;;11.18;56.35;101315.09;107831;1261;73857;-84
2023/04/17 06:33:33;;;;;;;7.00;4.00;;;;;;;11.13;55.99;101319.16;107886;1256;61160;-84
2023/04/17 06:36:02;;;;;;;8.20;4.30;;;;;;;11.12;56.22;101319.96;107994;1256;61256;-84
2023/04/17 06:38:46;;;;;;;6.90;4.10;;;;;;;11.10;56.39;101321.42;108036;1254;73710;-82
2023/04/17 06:41:16;;;;;;;8.70;4.20;;;;;;;11.12;56.28;101317.91;107950;1257;72667;-81
2023/04/17 06:43:47;;;;;;;7.30;4.10;;;;;;;11.14;56.28;101322.88;107788;1257;71785;-85
2023/04/17 06:46:17;;;;;;;7.20;4.20;;;;;;;11.14;55.79;101324.90;107782;1256;61237;-84
2023/04/17 06:49:36;;;;;;;8.10;4.50;;;;;;;11.13;55.48;101329.01;107911;1257;61159;-83
2023/04/17 06:52:06;;;;;;;9.00;5.00;;;;;;;11.17;55.71;101330.95;108080;1254;75738;-86
2023/04/17 06:54:37;;;;;;;7.50;4.50;;;;;;;11.20;55.65;101333.09;108282;1257;72123;-83
2023/04/17 06:57:09;;;;;;;7.30;4.20;;;;;;;11.25;55.67;101336.27;108062;1258;72977;-84
2023/04/17 06:59:37;;;;;;;6.70;4.80;;;;;;;11.31;55.81;101339.63;108008;1256;61340;-85
2023/04/17 07:02:06;;;;;;;8.30;4.10;;;;;;;11.32;55.43;101340.93;107996;1257;59920;-87
2023/04/17 07:04:34;;;;;;;7.80;4.40;;;;;;;11.35;55.56;101341.04;108022;1257;74362;-84
2023/04/17 07:07:03;;;;;;;7.50;4.60;;;;;;;11.41;55.53;101338.24;108000;1257;73459;-84
2023/04/17 07:09:32;;;;;;;10.50;5.10;;;;;;;11.45;55.58;101339.92;108007;1256;71751;-85
2023/04/17 07:12:02;;;;;;;8.40;4.80;;;;;;;11.48;55.26;101342.95;107982;1255;61212;-85
2023/04/17 07:14:31;;;;;;;7.60;4.90;;;;;;;11.53;55.60;101340.15;108032;1257;61199;-84
2023/04/17 07:16:59;;;;;;;7.50;5.00;;;;;;;11.59;55.63;101339.05;108042;1259;74818;-84
2023/04/17 07:19:29;;;;;;;7.10;4.60;;;;;;;11.65;55.05;101342.08;108046;1257;72906;-85
2023/04/17 07:21:57;;;;;;;8.80;5.30;;;;;;;11.67;54.32;101342.98;108006;1257;73860;-84
2023/04/17 07:24:28;;;;;;;7.90;4.90;;;;;;;11.70;54.55;101341.63;107948;1258;61071;-85
2023/04/17 07:27:01;;;;;;;8.30;4.90;;;;;;;11.79;54.88;101339.14;108028;1257;61554;-87
2023/04/17 07:29:32;;;;;;;7.90;5.00;;;;;;;11.90;54.49;101336.39;108343;1256;75825;-83
2023/04/17 07:32:01;;;;;;;7.10;4.70;;;;;;;11.96;53.56;101338.02;109199;1256;73773;-85
2023/04/17 07:34:43;;;;;;;7.00;4.70;;;;;;;12.07;53.66;101335.43;109019;1256;71677;-81
2023/04/17 07:37:20;;;;;;;9.40;4.90;;;;;;;12.12;53.32;101340.16;108366;1257;60172;-85
2023/04/17 07:39:51;;;;;;;8.70;5.10;;;;;;;12.20;53.31;101335.87;107870;1256;61250;-83
2023/04/17 07:42:24;;;;;;;9.70;5.30;;;;;;;12.29;52.91;101336.41;107977;1257;73679;-83
2023/04/17 07:45:02;;;;;;;7.90;4.40;;;;;;;12.37;52.75;101331.15;107891;1257;72210;-84
2023/04/17 07:47:36;;;;;;;8.20;4.20;;;;;;;12.53;52.58;101335.31;107951;1257;72465;-85
2023/04/17 07:50:21;;;;;;;7.20;3.90;;;;;;;12.73;51.24;101334.89;107922;1257;61564;-84
2023/04/17 07:53:03;;;;;;;6.90;3.70;;;;;;;12.90;50.52;101330.50;108080;1257;61159;-87
2023/04/17 07:55:40;;;;;;;6.80;3.30;;;;;;;13.07;49.44;101323.58;108094;1256;73936;-85
2023/04/17 07:58:10;;;;;;;6.30;3.20;;;;;;;13.19;48.76;101326.10;107903;1257;72808;-86
2023/04/17 08:00:53;;;;;;;5.50;3.20;;;;;;;13.29;48.28;101327.45;107840;1256;72660;-83
2023/04/17 08:03:34;;;;;;;6.50;2.90;;;;;;;13.41;47.78;101325.83;107796;1256;61244;-86
2023/04/17 08:06:04;;;;;;;6.50;2.90;;;;;;;13.53;47.62;101316.58;107650;1257;60478;-84
2023/04/17 08:08:33;;;;;;;6.10;2.90;;;;;;;13.64;46.71;101315.52;107760;1257;76495;-84
2023/04/17 08:11:13;;;;;;;5.50;2.90;;;;;;;14.13;45.81;101315.95;107939;1257;74237;-85
2023/04/17 08:13:45;;;;;;;5.90;3.00;;;;;;;14.47;44.58;101316.73;107914;1256;71806;-85
2023/04/17 08:16:23;;;;;;;5.00;3.20;;;;;;;14.70;43.50;101314.02;107848;1257;61210;-85
2023/04/17 08:18:58;;;;;;;5.80;3.00;;;;;;;14.75;43.58;101317.77;107900;1259;61166;-84
2023/04/17 08:21:35;;;;;;;7.50;3.30;;;;;;;14.81;43.70;101313.29;107929;1256;75642;-84
2023/04/17 08:24:10;;;;;;;5.10;3.20;;;;;;;14.83;43.71;101311.17;107859;1257;71844;-85
2023/04/17 08:27:00;;;;;;;5.40;2.80;;;;;;;14.85;43.93;101306.17;107912;1260;73393;-86
2023/04/17 08:30:11;;;;;;;5.50;3.30;;;;;;;14.92;43.66;101303.79;107913;1257;60521;-84
2023/04/17 08:33:01;;;;;;;6.90;3.20;;;;;;;15.03;42.95;101302.86;108116;1258;61266;-84
2023/04/17 08:35:55;;;;;;;4.70;2.50;;;;;;;15.14;43.70;101294.69;107961;1256;74722;-85
2023/04/17 08:38:48;;;;;;;6.00;2.90;;;;;;;15.24;41.97;101295.55;107992;1257;73243;-85
2023/04/17 08:41:55;;;;;;;5.40;2.80;;;;;;;15.28;42.54;101297.70;107838;1255;71410;-82
2023/04/17 08:44:45;;;;;;;5.20;2.50;;;;;;;15.36;41.70;101296.30;107887;1257;61163;-84
2023/04/17 08:47:50;;;;;;;5.50;2.60;;;;;;;15.41;41.24;101293.38;107853;1257;61189;-85
2023/04/17 08:50:55;;;;;;;4.50;2.30;;;;;;;15.51;41.91;101294.98;107933;1257;75969;-85
2023/04/17 08:53:46;;;;;;;5.90;2.80;;;;;;;15.66;41.76;101296.65;107785;1256;72702;-85
2023/04/17 08:56:27;;;;;;;5.40;2.40;;;;;;;15.76;40.56;101287.48;108086;1257;73660;-85
2023/04/17 08:59:26;;;;;;;6.30;2.60;;;;;;;15.77;40.72;101294.27;108098;1257;61389;-86
2023/04/17 09:02:18;;;;;;;8.30;2.90;;;;;;;15.84;40.95;101293.48;108735;1256;59936;-86
2023/04/17 09:04:57;;;;;;;;;;;;;;;15.94;40.95;101293.95;108705;1257;74487;-85
2023/04/17 09:07:45;;;;;;;4.10;2.50;;;;;;;16.03;40.52;101292.56;107816;1256;72121;-86
2023/04/17 09:10:43;;;;;;;5.60;3.00;;;;;;;16.14;40.45;101288.10;107803;1259;73137;-85
2023/04/17 09:13:44;;;;;;;4.90;2.50;;;;;;;16.30;40.76;101284.15;107760;1255;61179;-84
2023/04/17 09:16:59;;;;;;;8.70;2.80;;;;;;;16.46;40.37;101281.37;107843;1257;61142;-85
2023/04/17 09:20:13;;;;;;;4.80;2.60;;;;;;;16.39;39.66;101279.52;107885;1257;74907;-83
2023/04/17 09:23:11;;;;;;;5.50;2.50;;;;;;;16.30;40.24;101275.36;107870;1257;71091;-85
2023/04/17 09:26:32;;;;;;;5.50;2.60;;;;;;;16.24;40.33;101275.61;107788;1257;73033;-85
2023/04/17 09:29:09;;;;;;;5.20;2.80;;;;;;;16.30;40.46;101271.38;107855;1255;61363;-84
2023/04/17 09:31:41;;;;;;;5.30;2.60;;;;;;;16.52;40.98;101268.06;107885;1257;59967;-88
2023/04/17 09:34:10;;;;;;;6.10;2.30;;;;;;;16.69;40.39;101271.56;107895;1261;75810;-85
2023/04/17 09:36:40;;;;;;;6.40;2.50;;;;;;;16.78;40.09;101272.71;107823;1256;74320;-86
2023/04/17 09:39:22;;;;;;;4.10;2.70;;;;;;;16.44;40.86;101270.91;107893;1257;73653;-84
2023/04/17 09:42:01;;;;;;;6.10;3.00;;;;;;;16.14;41.59;101268.00;107824;1257;61077;-86
2023/04/17 09:44:31;;;;;;;6.10;2.70;;;;;;;16.12;41.97;101267.41;107859;1257;60350;-84
2023/04/17 09:47:00;;;;;;;4.00;2.70;;;;;;;15.99;41.59;101270.36;107846;1257;73148;-83
2023/04/17 09:49:48;;;;;;;5.40;2.90;;;;;;;15.84;42.18;101269.36;107846;1257;72209;-84
2023/04/17 09:52:18;;;;;;;4.80;2.40;;;;;;;15.69;42.27;101269.94;107854;1257;73665;-84
2023/04/17 09:54:48;;;;;;;5.80;2.80;;;;;;;15.51;42.70;101275.82;107858;1257;61138;-83
2023/04/17 09:57:16;;;;;;;5.70;2.80;;;;;;;15.38;43.35;101275.73;107873;1260;61109;-85
2023/04/17 09:59:48;;;;;;;6.10;3.00;;;;;;;15.31;43.23;101268.79;107742;1257;72978;-83
2023/04/17 10:02:17;;;;;;;7.40;2.80;;;;;;;15.14;43.08;101268.80;107786;1257;72582;-85
2023/04/17 10:04:46;;;;;;;6.50;2.70;;;;;;;14.96;43.73;101264.98;107763;1260;71417;-84
2023/04/17 10:07:16;;;;;;;6.10;3.10;;;;;;;14.88;43.94;101263.75;107808;1257;60384;-86
2023/04/17 10:09:44;;;;;;;4.30;2.90;;;;;;;14.88;44.37;101263.27;107851;1257;61106;-85
2023/04/17 10:12:17;;;;;;;6.40;2.90;;;;;;;14.88;44.33;101261.60;107843;1257;74749;-85
2023/04/17 10:14:49;;;;;;;6.80;3.10;;;;;;;14.85;44.35;101263.11;107739;1257;73629;-86
2023/04/17 10:17:33;;;;;;;7.00;3.20;;;;;;;14.80;44.35;101261.15;107996;1256;73021;-85
2023/04/17 10:20:14;;;;;;;5.50;2.90;;;;;;;14.79;44.59;101263.30;107864;1257;61250;-84
2023/04/17 10:22:43;;;;;;;5.40;2.90;;;;;;;14.77;44.71;101264.33;107756;1257;61429;-84
2023/04/17 10:25:12;;;;;;;5.50;3.10;;;;;;;14.80;44.79;101258.79;107974;1257;75195;-85
2023/04/17 10:27:46;;;;;;;5.20;2.90;;;;;;;14.86;45.14;101256.48;109186;1256;72075;-84
2023/04/17 10:30:16;;;;;;;7.10;3.00;;;;;;;14.99;45.15;101252.77;109133;1257;71795;-85
2023/04/17 10:32:46;;;;;;;5.00;2.90;;;;;;;15.08;44.89;101253.41;108514;1258;60676;-85
2023/04/17 10:35:14;;;;;;;5.30;2.90;;;;;;;15.18;44.65;101248.35;107867;1257;61359;-83
2023/04/17 10:38:02;;;;;;;5.60;3.30;;;;;;;15.26;44.59;101249.36;108015;1254;72854;-85
2023/04/17 10:40:32;;;;;;;5.50;2.80;;;;;;;15.43;44.31;101246.70;107938;1257;73799;-85
2023/04/17 10:43:08;;;;;;;6.50;3.20;;;;;;;15.61;43.67;101239.23;107927;1257;70526;-85
2023/04/17 10:45:55;;;;;;;4.90;2.60;;;;;;;15.79;43.84;101240.45;107858;1258;61142;-84
2023/04/17 10:48:27;;;;;;;4.90;2.80;;;;;;;16.04;43.50;101232.42;107909;1260;61540;-84
2023/04/17 10:50:56;;;;;;;4.20;2.20;;;;;;;16.27;42.91;101230.09;107977;1259;74679;-85
2023/04/17 10:53:42;;;;;;;4.90;2.10;;;;;;;16.52;42.00;101235.21;107926;1258;71930;-84
2023/04/17 10:56:11;;;;;;;2.90;1.60;;;;;;;16.93;39.09;101230.13;107848;1257;71788;-85
2023/04/17 10:58:57;;;;;;;3.60;1.50;;;;;;;17.52;37.44;101228.86;108008;1254;61158;-86
2023/04/17 11:01:29;;;;;;;3.00;1.60;;;;;;;17.73;36.28;101229.13;107799;1256;61188;-85
2023/04/17 11:04:00;;;;;;;;;;;;;;;17.61;35.84;101225.37;107853;1257;72575;-83
2023/04/17 11:06:33;;;;;;;3.50;1.40;;;;;;;17.85;34.93;101226.27;107725;1262;72877;-82
2023/04/17 11:09:01;;;;;;;4.50;1.70;;;;;;;17.67;35.19;101224.31;107646;1262;72671;-81
2023/04/17 11:11:50;;;;;;;2.70;1.50;;;;;;;17.65;34.29;101224.08;107888;1257;61355;-83
2023/04/17 11:14:21;;;;;;;3.20;1.70;;;;;;;17.53;33.63;101226.63;107917;1256;61549;-82
2023/04/17 11:16:50;;;;;;;3.20;1.50;;;;;;;17.41;34.36;101226.48;107902;1256;76175;-86
2023/04/17 11:19:21;;;;;;;4.60;1.50;;;;;;;17.36;34.50;101223.90;107711;1260;71589;-85
2023/04/17 11:21:52;;;;;;;3.90;1.60;;;;;;;17.34;34.25;101222.20;107842;1259;72730;-92
2023/04/17 11:24:22;;;;;;;2.30;1.30;;;;;;;17.38;34.68;101212.48;107777;1260;61849;-89
2023/04/17 11:26:52;;;;;;;2.80;1.30;;;;;;;17.35;33.69;101209.92;107824;1258;61461;-90
2023/04/17 11:29:21;;;;;;;4.30;1.20;;;;;;;17.22;33.02;101210.05;107882;1256;75281;-90
2023/04/17 11:31:51;;;;;;;5.30;1.40;;;;;;;17.22;33.36;101209.67;108038;1256;73357;-89
2023/04/17 11:34:20;;;;;;;2.30;1.30;;;;;;;17.20;32.97;101206.41;107783;1256;71062;-91
2023/04/17 11:36:52;;;;;;;3.50;1.40;;;;;;;17.32;32.71;101205.14;107869;1260;61170;-87
2023/04/17 11:39:23;;;;;;;2.00;1.20;;;;;;;17.83;31.86;101198.15;107866;1258;61244;-87
2023/04/17 11:41:52;;;;;;;1.60;1.10;;;;;;;17.44;33.46;101192.27;107900;1256;72599;-86
2023/04/17 11:44:20;;;;;;;3.10;1.30;;;;;;;17.55;33.35;101189.11;107915;1259;72502;-85